Time;durP1;ratioP1;P1;durP2;ratioP2;P2;SDS_P1;SDS_P2;PMS_P1;PMS_P2;Temp;Humidity;BMP_temperature;BMP_pressure;BME280_temperature;BME280_humidity;BME280_pressure;Samples;Min_cycle;Max_cycle;Signal;HPM_P1;HPM_P2
2023/08/10 00:00:12;;;;;;;6.60;5.32;;;;;;;25.42;74.53;99410.34;5076618;28;20120;-78
2023/08/10 00:02:56;;;;;;;6.35;4.80;;;;;;;25.39;74.92;99416.31;5075980;28;20170;-78
2023/08/10 00:05:40;;;;;;;6.07;4.72;;;;;;;25.42;74.84;99420.28;5076561;28;20098;-77
2023/08/10 00:08:24;;;;;;;6.10;4.25;;;;;;;25.51;74.88;99416.72;5081727;28;20513;-79
2023/08/10 00:11:08;;;;;;;5.68;4.57;;;;;;;25.51;74.66;99413.25;5074501;28;20536;-79
2023/08/10 00:13:52;;;;;;;5.78;4.50;;;;;;;25.47;75.19;99418.38;5074666;28;20386;-78
2023/08/10 00:16:35;;;;;;;5.90;4.35;;;;;;;25.40;75.24;99412.53;5080957;28;20047;-78
2023/08/10 00:19:19;;;;;;;5.05;4.35;;;;;;;25.34;75.23;99421.69;5073252;28;20035;-78
2023/08/10 00:22:03;;;;;;;6.03;4.32;;;;;;;25.29;75.25;99413.69;5072962;28;20398;-78
2023/08/10 00:24:47;;;;;;;5.28;4.38;;;;;;;25.23;75.42;99419.13;5073927;28;20051;-78
2023/08/10 00:27:31;;;;;;;4.55;4.15;;;;;;;25.17;75.52;99409.53;5076949;28;20047;-79
2023/08/10 00:30:16;;;;;;;4.97;4.10;;;;;;;25.21;75.41;99410.56;5076471;28;20090;-79
2023/08/10 00:33:00;;;;;;;5.50;4.80;;;;;;;25.24;75.41;99417.22;5079922;28;20038;-77
2023/08/10 00:35:44;;;;;;;4.35;3.95;;;;;;;25.30;75.98;99412.63;5073037;28;20047;-77
2023/08/10 00:38:28;;;;;;;5.00;4.20;;;;;;;25.41;75.75;99416.81;5075552;28;20036;-77
2023/08/10 00:41:12;;;;;;;5.72;4.20;;;;;;;25.39;75.97;99410.94;5075882;28;20538;-77
2023/08/10 00:43:56;;;;;;;6.25;4.40;;;;;;;25.49;75.92;99420.81;5075516;28;20458;-77
2023/08/10 00:46:40;;;;;;;6.57;4.70;;;;;;;25.48;75.87;99425.34;5079114;28;20035;-77
2023/08/10 00:49:25;;;;;;;4.78;4.38;;;;;;;25.38;75.94;99414.69;5078086;28;20425;-77
2023/08/10 00:52:09;;;;;;;8.18;5.22;;;;;;;25.32;75.74;99415.81;5078037;28;20162;-78
2023/08/10 00:54:53;;;;;;;4.90;4.50;;;;;;;25.22;76.29;99422.91;5075053;28;20123;-77
2023/08/10 00:57:38;;;;;;;5.70;4.63;;;;;;;25.24;76.26;99426.09;5075799;28;20068;-77
2023/08/10 01:00:22;;;;;;;7.72;5.05;;;;;;;25.42;75.75;99409.53;5079269;28;20047;-77
2023/08/10 01:03:06;;;;;;;7.57;5.80;;;;;;;25.14;76.28;99415.44;5075911;28;20102;-77
2023/08/10 01:06:02;;;;;;;6.32;5.60;;;;;;;25.18;75.82;99408.44;5075026;28;20059;-77
2023/08/10 01:09:12;;;;;;;7.47;6.43;;;;;;;25.11;76.23;99413.31;5083838;28;20402;-77
2023/08/10 01:12:13;;;;;;;6.40;5.55;;;;;;;25.12;76.42;99416.81;5072288;28;20047;-77
2023/08/10 01:15:06;;;;;;;7.07;6.28;;;;;;;25.05;76.75;99403.72;5077651;28;20110;-77
2023/08/10 01:17:56;;;;;;;6.22;5.63;;;;;;;25.03;76.94;99403.19;5071310;28;20495;-78
2023/08/10 01:20:43;;;;;;;8.85;6.35;;;;;;;25.08;76.79;99405.84;5074404;28;20039;-78
2023/08/10 01:23:41;;;;;;;6.28;5.35;;;;;;;25.11;77.01;99407.94;5077405;28;20067;-77
2023/08/10 01:26:27;;;;;;;6.50;5.80;;;;;;;25.05;76.97;99406.41;5082868;28;20054;-77
2023/08/10 01:29:12;;;;;;;5.75;5.10;;;;;;;25.06;76.82;99402.63;5078742;28;20035;-78
2023/08/10 01:31:56;;;;;;;6.10;5.50;;;;;;;24.95;77.33;99400.03;5072994;28;20047;-78
2023/08/10 01:34:40;;;;;;;7.22;5.68;;;;;;;24.97;77.25;99401.66;5078934;28;20042;-78
2023/08/10 01:37:24;;;;;;;9.55;5.60;;;;;;;24.95;77.54;99405.38;5077575;28;20101;-77
2023/08/10 01:40:11;;;;;;;6.63;5.80;;;;;;;24.98;77.85;99405.94;5076512;28;20079;-77
2023/08/10 01:42:55;;;;;;;6.07;5.50;;;;;;;24.85;78.12;99407.34;5075295;28;20043;-77
2023/08/10 01:45:45;;;;;;;5.80;5.20;;;;;;;25.02;78.03;99401.59;5075153;28;20505;-78
2023/08/10 01:48:33;;;;;;;10.25;5.38;;;;;;;25.04;77.83;99402.91;5078107;28;20031;-78
2023/08/10 01:51:22;;;;;;;7.10;5.40;;;;;;;25.07;77.77;99404.22;5074753;28;20056;-78
2023/08/10 01:54:09;;;;;;;6.55;5.40;;;;;;;24.91;78.09;99407.03;5081671;28;20554;-78
2023/08/10 01:56:53;;;;;;;6.38;5.78;;;;;;;24.91;78.21;99398.97;5079268;28;20432;-78
2023/08/10 01:59:37;;;;;;;7.28;5.70;;;;;;;24.94;78.12;99403.00;5077740;28;20039;-77
2023/08/10 02:02:21;;;;;;;6.32;5.72;;;;;;;24.89;78.21;99395.78;5071451;28;20031;-77
2023/08/10 02:05:06;;;;;;;5.85;5.18;;;;;;;25.03;78.28;99403.19;5073204;28;20105;-77
2023/08/10 02:07:50;;;;;;;7.70;5.35;;;;;;;25.07;78.08;99398.84;5073024;28;20571;-77
2023/08/10 02:10:34;;;;;;;5.95;4.57;;;;;;;24.94;77.69;99405.69;5073237;28;20522;-76
2023/08/10 02:13:19;;;;;;;5.22;4.50;;;;;;;24.82;78.05;99392.63;5077922;28;20035;-77
2023/08/10 02:16:03;;;;;;;4.97;4.57;;;;;;;24.70;78.45;99395.66;5076662;28;20413;-77
2023/08/10 02:18:47;;;;;;;4.82;4.32;;;;;;;24.61;78.71;99390.06;5077396;28;20039;-78
2023/08/10 02:21:31;;;;;;;5.18;4.15;;;;;;;24.50;79.44;99388.53;5077911;28;20039;-77
2023/08/10 02:24:15;;;;;;;6.40;4.90;;;;;;;24.68;78.70;99387.88;5079005;28;20397;-76
2023/08/10 02:27:00;;;;;;;5.15;4.65;;;;;;;24.50;79.25;99385.84;5075476;28;20543;-76
2023/08/10 02:29:44;;;;;;;5.28;4.78;;;;;;;24.74;78.71;99390.50;5079405;28;20047;-76
2023/08/10 02:32:28;;;;;;;4.90;4.45;;;;;;;24.46;79.34;99395.53;5078518;28;20039;-76
2023/08/10 02:35:13;;;;;;;4.90;4.30;;;;;;;24.42;79.46;99392.59;5072947;28;20105;-76
2023/08/10 02:37:57;;;;;;;5.10;4.60;;;;;;;24.38;79.81;99391.56;5080222;28;20052;-76
2023/08/10 02:40:41;;;;;;;7.50;4.55;;;;;;;24.40;79.91;99400.13;5075397;28;20088;-77
2023/08/10 02:43:25;;;;;;;5.32;4.47;;;;;;;24.38;79.83;99389.69;5078340;28;20115;-76
2023/08/10 02:46:09;;;;;;;4.78;4.35;;;;;;;24.33;80.14;99392.38;5083444;28;20385;-75
2023/08/10 02:48:54;;;;;;;6.78;5.82;;;;;;;24.41;80.27;99384.84;5078344;28;20042;-75
2023/08/10 02:51:39;;;;;;;7.38;4.80;;;;;;;24.46;80.38;99388.28;5080659;28;20039;-77
2023/08/10 02:54:23;;;;;;;7.25;5.53;;;;;;;24.50;80.21;99385.84;5079264;28;20043;-76
2023/08/10 02:57:08;;;;;;;6.55;5.03;;;;;;;24.90;78.81;99389.34;5080765;28;20047;-75
2023/08/10 02:59:51;;;;;;;5.53;4.65;;;;;;;24.84;78.66;99387.78;5082111;28;20081;-75
2023/08/10 03:02:35;;;;;;;5.30;4.80;;;;;;;24.61;78.75;99384.72;5077337;28;20535;-77
2023/08/10 03:05:20;;;;;;;5.55;4.85;;;;;;;24.32;79.91;99371.22;5081601;28;20085;-75
2023/08/10 03:08:04;;;;;;;6.43;4.93;;;;;;;24.75;79.04;99378.69;5078886;28;20059;-76
2023/08/10 03:10:48;;;;;;;6.57;4.88;;;;;;;25.00;78.73;99379.59;5073828;28;20066;-77
2023/08/10 03:13:32;;;;;;;7.88;5.22;;;;;;;24.68;79.29;99368.28;5077807;28;20039;-76
2023/08/10 03:16:17;;;;;;;8.60;5.68;;;;;;;24.58;80.12;99376.41;5084205;28;20414;-76
2023/08/10 03:19:01;;;;;;;6.70;4.97;;;;;;;25.35;78.62;99377.63;5079349;28;20440;-76
2023/08/10 03:21:46;;;;;;;6.10;4.93;;;;;;;25.57;78.18;99362.94;5076758;28;20071;-76
2023/08/10 03:24:30;;;;;;;6.88;5.28;;;;;;;25.72;78.20;99365.41;5081551;28;20046;-76
2023/08/10 03:27:14;;;;;;;5.80;5.20;;;;;;;25.87;77.89;99360.94;5078163;28;20063;-76
2023/08/10 03:29:58;;;;;;;6.90;5.95;;;;;;;26.00;77.67;99359.44;5074289;28;20047;-76
2023/08/10 03:32:42;;;;;;;6.00;5.40;;;;;;;26.03;77.85;99353.47;5078684;28;20039;-76
2023/08/10 03:35:26;;;;;;;6.47;5.70;;;;;;;25.93;77.77;99349.03;5080933;28;20063;-76
2023/08/10 03:38:10;;;;;;;6.50;5.60;;;;;;;26.05;77.66;99344.03;5082307;28;20101;-76
2023/08/10 03:40:54;;;;;;;7.47;5.57;;;;;;;25.95;77.62;99339.59;5080891;28;20063;-76
2023/08/10 03:43:38;;;;;;;5.97;5.10;;;;;;;25.83;77.67;99344.59;5071630;28;20410;-77
2023/08/10 03:46:23;;;;;;;8.13;5.38;;;;;;;25.67;77.89;99341.28;5079649;28;20058;-77
2023/08/10 03:49:06;;;;;;;5.50;4.55;;;;;;;25.53;77.82;99341.97;5083545;28;20062;-77
2023/08/10 03:51:50;;;;;;;4.60;4.20;;;;;;;25.38;77.76;99348.31;5076688;28;20044;-76
2023/08/10 03:54:34;;;;;;;5.63;4.75;;;;;;;25.22;77.42;99345.00;5081380;28;20098;-76
2023/08/10 03:57:18;;;;;;;5.82;5.25;;;;;;;25.09;78.11;99343.78;5083577;28;20055;-77
2023/08/10 04:00:04;;;;;;;5.88;5.28;;;;;;;25.09;77.87;99349.16;5073636;28;20039;-77
2023/08/10 04:02:48;;;;;;;6.78;5.45;;;;;;;24.99;78.28;99345.78;5073045;28;20043;-77
2023/08/10 04:05:32;;;;;;;7.55;6.85;;;;;;;24.88;78.76;99347.75;5078726;28;20106;-77
2023/08/10 04:08:16;;;;;;;9.35;6.72;;;;;;;24.90;78.29;99351.75;5076728;28;20135;-76
2023/08/10 04:11:00;;;;;;;6.75;6.13;;;;;;;24.88;78.64;99343.16;5072889;28;20532;-76
2023/08/10 04:13:44;;;;;;;8.00;6.90;;;;;;;24.73;79.02;99335.22;5074702;28;20044;-76
2023/08/10 04:16:28;;;;;;;6.72;6.05;;;;;;;24.76;78.43;99348.09;5074631;28;20451;-77
2023/08/10 04:19:12;;;;;;;6.47;5.88;;;;;;;24.75;78.79;99338.41;5080108;28;20129;-77
2023/08/10 04:21:57;;;;;;;7.95;6.60;;;;;;;24.73;78.37;99338.72;5079791;28;20051;-76
2023/08/10 04:24:41;;;;;;;6.85;6.15;;;;;;;24.76;78.51;99324.75;5076054;28;20115;-76
2023/08/10 04:27:25;;;;;;;10.10;6.75;;;;;;;24.76;79.03;99334.69;5073883;28;20047;-76
2023/08/10 04:30:09;;;;;;;8.05;6.20;;;;;;;24.74;78.77;99331.44;5075146;28;20043;-76
2023/08/10 04:32:54;;;;;;;9.40;6.90;;;;;;;24.75;79.20;99333.06;5077423;28;20441;-78
2023/08/10 04:35:38;;;;;;;8.20;6.70;;;;;;;24.77;79.21;99341.69;5076535;28;20386;-76
2023/08/10 04:38:21;;;;;;;8.27;6.32;;;;;;;24.78;79.77;99332.53;5078243;28;20135;-76
2023/08/10 04:41:05;;;;;;;6.97;6.22;;;;;;;24.79;79.92;99334.13;5073515;28;20133;-76
2023/08/10 04:43:50;;;;;;;8.73;6.72;;;;;;;24.82;79.81;99338.94;5078567;28;20039;-76
2023/08/10 04:46:35;;;;;;;7.93;6.63;;;;;;;24.84;80.01;99334.09;5079063;28;20497;-76
2023/08/10 04:49:19;;;;;;;6.43;5.72;;;;;;;24.80;79.90;99333.06;5082446;28;20043;-77
2023/08/10 04:52:04;;;;;;;5.93;5.38;;;;;;;24.80;80.15;99336.53;5074880;28;20050;-77
2023/08/10 04:54:48;;;;;;;7.70;5.82;;;;;;;24.89;80.03;99336.72;5076423;28;20410;-77
2023/08/10 04:57:32;;;;;;;7.05;6.28;;;;;;;24.99;80.59;99343.09;5079910;28;20039;-76
2023/08/10 05:00:17;;;;;;;7.50;5.50;;;;;;;24.98;80.21;99336.13;5077100;28;20048;-76
2023/08/10 05:03:01;;;;;;;7.65;5.68;;;;;;;24.99;80.38;99337.72;5074482;28;20453;-76
2023/08/10 05:05:45;;;;;;;6.30;5.65;;;;;;;24.98;80.52;99336.13;5079093;28;20094;-77
2023/08/10 05:08:29;;;;;;;6.55;5.78;;;;;;;24.95;80.96;99338.25;5073517;28;20051;-75
2023/08/10 05:11:13;;;;;;;8.15;6.05;;;;;;;25.06;80.88;99336.31;5074054;28;20040;-76
2023/08/10 05:13:57;;;;;;;7.70;5.38;;;;;;;25.10;80.84;99340.03;5072532;28;20130;-76
2023/08/10 05:16:41;;;;;;;6.22;5.63;;;;;;;25.19;80.96;99342.88;5077962;28;20071;-76
2023/08/10 05:19:26;;;;;;;6.55;5.90;;;;;;;25.21;80.90;99332.66;5074322;28;20489;-77
2023/08/10 05:22:10;;;;;;;8.30;6.10;;;;;;;25.35;80.58;99345.38;5077019;28;20124;-77
2023/08/10 05:24:54;;;;;;;9.00;5.85;;;;;;;25.51;80.30;99344.16;5076297;28;20055;-76
2023/08/10 05:27:39;;;;;;;7.05;6.35;;;;;;;25.65;80.71;99338.09;5076220;28;20172;-76
2023/08/10 05:30:23;;;;;;;6.78;6.10;;;;;;;25.72;80.14;99338.53;5077973;28;20082;-75
2023/08/10 05:33:07;;;;;;;7.50;5.68;;;;;;;25.67;80.42;99335.91;5075745;28;20517;-76
2023/08/10 05:35:51;;;;;;;9.35;5.90;;;;;;;25.72;80.28;99343.91;5078434;28;20043;-76
2023/08/10 05:38:37;;;;;;;5.40;4.90;;;;;;;25.77;80.20;99337.69;5073105;28;20492;-76
2023/08/10 05:41:21;;;;;;;5.40;4.90;;;;;;;25.87;79.90;99345.63;5078843;28;20401;-76
2023/08/10 05:44:05;;;;;;;8.32;5.63;;;;;;;25.87;80.13;99344.81;5076452;28;20122;-76
2023/08/10 05:46:49;;;;;;;6.30;5.28;;;;;;;25.92;79.82;99353.63;5075569;28;20089;-76
2023/08/10 05:49:33;;;;;;;5.80;5.28;;;;;;;26.00;80.28;99360.25;5078397;28;20078;-76
2023/08/10 05:52:17;;;;;;;7.38;5.53;;;;;;;26.03;80.04;99362.34;5083448;28;20038;-76
2023/08/10 05:55:01;;;;;;;10.00;6.72;;;;;;;26.09;79.25;99373.84;5084399;28;20094;-76
2023/08/10 05:57:46;;;;;;;8.60;6.85;;;;;;;26.15;79.58;99367.28;5074776;28;20055;-78
2023/08/10 06:00:30;;;;;;;7.57;6.25;;;;;;;26.20;79.63;99361.06;5079219;28;20162;-77
2023/08/10 06:03:14;;;;;;;8.23;6.90;;;;;;;26.25;79.32;99361.00;5069849;28;20058;-77
2023/08/10 06:06:00;;;;;;;9.10;6.55;;;;;;;26.33;79.63;99356.84;5084161;28;20090;-77
2023/08/10 06:08:44;;;;;;;10.55;6.68;;;;;;;26.43;79.24;99361.28;5080979;28;20042;-77
2023/08/10 06:11:28;;;;;;;7.60;6.70;;;;;;;26.51;79.27;99360.59;5082064;28;20060;-76
2023/08/10 06:14:12;;;;;;;9.77;6.30;;;;;;;26.57;79.56;99356.75;5077804;28;20466;-77
2023/08/10 06:16:57;;;;;;;6.15;5.55;;;;;;;26.89;78.76;99359.75;5078193;28;20497;-76
2023/08/10 06:19:52;;;;;;;7.15;5.15;;;;;;;26.76;79.37;99359.38;5071893;28;20103;-76
2023/08/10 06:22:38;;;;;;;8.02;5.43;;;;;;;26.79;79.36;99352.63;5073122;28;20056;-76
2023/08/10 06:25:23;;;;;;;5.82;4.65;;;;;;;27.08;78.60;99354.28;5077151;28;20497;-75
2023/08/10 06:28:07;;;;;;;6.72;4.60;;;;;;;27.20;78.20;99357.31;5079875;28;20378;-76
2023/08/10 06:30:51;;;;;;;5.63;5.00;;;;;;;27.38;77.96;99352.13;5078192;28;20047;-76
2023/08/10 06:33:38;;;;;;;6.68;5.63;;;;;;;27.05;78.86;99361.09;5082120;28;20154;-77
2023/08/10 06:36:24;;;;;;;7.28;5.70;;;;;;;27.23;78.79;99362.09;5073536;28;20087;-76
2023/08/10 06:39:10;;;;;;;8.80;5.63;;;;;;;27.43;78.22;99365.50;5079204;28;20034;-76
2023/08/10 06:41:54;;;;;;;7.43;5.68;;;;;;;27.22;78.97;99363.19;5077798;28;20075;-76
2023/08/10 06:44:38;;;;;;;8.02;5.70;;;;;;;27.41;78.52;99365.00;5077018;28;20073;-76
2023/08/10 06:47:22;;;;;;;6.53;5.63;;;;;;;27.33;78.75;99360.34;5076967;28;20042;-80
2023/08/10 06:50:08;;;;;;;6.47;5.28;;;;;;;27.43;78.95;99365.50;5077021;28;20124;-79
2023/08/10 06:52:53;;;;;;;8.50;5.60;;;;;;;27.45;78.61;99367.91;5081652;28;20047;-79
2023/08/10 06:55:38;;;;;;;7.30;5.47;;;;;;;27.59;78.68;99366.03;5078066;28;20094;-78
2023/08/10 06:58:22;;;;;;;7.38;5.30;;;;;;;27.97;77.88;99365.00;5081123;28;20462;-78
2023/08/10 07:01:06;;;;;;;;;;;;;;;27.96;78.17;99371.50;5081906;28;20066;-79
2023/08/10 07:03:49;;;;;;;6.03;5.35;;;;;;;27.34;79.73;99378.09;5084766;28;19950;-82
2023/08/10 07:06:33;;;;;;;5.88;5.15;;;;;;;27.22;79.89;99376.69;5077958;28;20047;-84
2023/08/10 07:09:17;;;;;;;5.80;5.03;;;;;;;27.29;79.97;99375.47;5087147;28;20515;-81
2023/08/10 07:12:05;;;;;;;6.88;4.85;;;;;;;27.42;80.36;99380.09;5081970;28;20547;-81
2023/08/10 07:14:49;;;;;;;7.05;5.45;;;;;;;27.74;79.34;99378.41;5077968;28;20048;-80
2023/08/10 07:17:33;;;;;;;8.65;5.72;;;;;;;27.74;78.79;99381.13;5080421;28;20093;-82
2023/08/10 07:20:18;;;;;;;6.60;4.95;;;;;;;27.67;79.89;99374.53;5079467;28;20474;-79
2023/08/10 07:23:03;;;;;;;6.47;4.75;;;;;;;27.97;79.11;99372.28;5076622;28;20047;-79
2023/08/10 07:25:47;;;;;;;5.82;4.85;;;;;;;28.23;78.50;99369.84;5078718;28;20402;-80
2023/08/10 07:28:31;;;;;;;5.30;4.80;;;;;;;28.52;77.87;99374.06;5084569;28;20064;-81
2023/08/10 07:31:15;;;;;;;7.90;4.97;;;;;;;28.38;77.85;99378.69;5075961;28;20112;-86
2023/08/10 07:33:59;;;;;;;6.72;5.53;;;;;;;28.64;77.18;99376.97;5083437;28;20454;-82
2023/08/10 07:36:43;;;;;;;6.95;5.88;;;;;;;28.69;76.94;99373.34;5076399;28;20035;-79
2023/08/10 07:39:27;;;;;;;9.30;5.63;;;;;;;28.75;77.62;99369.41;5079694;28;20170;-80
2023/08/10 07:42:12;;;;;;;8.02;6.50;;;;;;;28.81;76.59;99370.13;5081997;28;20146;-84
2023/08/10 07:44:56;;;;;;;7.13;6.38;;;;;;;28.92;76.42;99374.16;5079162;28;20142;-83
2023/08/10 07:47:41;;;;;;;10.20;7.72;;;;;;;28.80;77.00;99371.22;5074675;28;20535;-82
2023/08/10 07:50:26;;;;;;;8.18;6.75;;;;;;;29.00;76.42;99374.50;5075234;28;20105;-82
2023/08/10 07:53:10;;;;;;;8.18;7.38;;;;;;;28.84;76.42;99369.50;5080648;28;20055;-80
2023/08/10 07:55:55;;;;;;;9.38;7.13;;;;;;;28.97;75.87;99375.13;5078567;28;20035;-81
2023/08/10 07:58:39;;;;;;;7.97;6.20;;;;;;;29.02;75.10;99372.28;5076517;28;20100;-81
2023/08/10 08:01:23;;;;;;;7.25;6.47;;;;;;;28.93;74.89;99375.75;5078446;28;20133;-79
2023/08/10 08:04:07;;;;;;;7.90;6.10;;;;;;;28.91;75.37;99377.97;5077665;28;21391;-80
2023/08/10 08:06:51;;;;;;;7.47;6.68;;;;;;;29.24;74.58;99376.06;5075294;28;20094;-81
2023/08/10 08:09:36;;;;;;;11.07;6.63;;;;;;;29.32;74.49;99375.31;5074912;28;21684;-81
2023/08/10 08:12:20;;;;;;;8.32;6.53;;;;;;;29.45;73.62;99379.03;5077598;28;20140;-81
2023/08/10 08:15:04;;;;;;;6.75;6.03;;;;;;;29.53;71.97;99372.06;5079043;28;20107;-81
2023/08/10 08:18:26;;;;;;;8.15;5.20;;;;;;;29.54;71.94;99371.72;5071872;28;20071;-81
2023/08/10 08:21:19;;;;;;;6.85;5.63;;;;;;;29.42;72.64;99364.22;5075725;28;20090;-78
2023/08/10 08:24:04;;;;;;;6.93;5.43;;;;;;;29.27;73.66;99362.72;5078587;28;20077;-82
2023/08/10 08:26:48;;;;;;;6.05;5.35;;;;;;;29.38;73.45;99365.13;5082081;28;20102;-80
2023/08/10 08:29:34;;;;;;;6.28;5.00;;;;;;;29.40;72.72;99358.31;5075290;28;20043;-81
2023/08/10 08:32:18;;;;;;;7.85;4.78;;;;;;;29.35;72.60;99361.16;5076244;28;20093;-81
2023/08/10 08:35:03;;;;;;;5.82;4.55;;;;;;;29.64;72.72;99359.81;5081203;28;20040;-80
2023/08/10 08:37:47;;;;;;;5.95;4.43;;;;;;;30.31;69.53;99359.75;5070492;28;20513;-79
2023/08/10 08:40:31;;;;;;;6.95;4.57;;;;;;;30.36;69.55;99367.72;5075620;28;20732;-79
2023/08/10 08:43:16;;;;;;;4.57;3.60;;;;;;;30.38;68.68;99364.69;5075020;28;20098;-79
2023/08/10 08:46:01;;;;;;;4.25;3.75;;;;;;;30.40;68.53;99370.59;5070502;28;20568;-80
2023/08/10 08:48:46;;;;;;;4.00;3.60;;;;;;;30.08;69.77;99359.91;5075693;28;20062;-80
2023/08/10 08:51:31;;;;;;;4.82;3.40;;;;;;;30.10;69.83;99362.31;5074979;28;20103;-80
2023/08/10 08:54:15;;;;;;;4.53;3.05;;;;;;;29.85;70.25;99360.03;5075240;28;20398;-80
2023/08/10 08:56:59;;;;;;;4.00;3.63;;;;;;;29.77;69.50;99369.72;5079221;28;20074;-80
2023/08/10 08:59:43;;;;;;;3.88;3.40;;;;;;;29.82;69.59;99376.09;5077486;28;20402;-82
2023/08/10 09:02:27;;;;;;;5.88;3.45;;;;;;;30.04;68.27;99372.50;5076639;28;20064;-81
2023/08/10 09:05:11;;;;;;;3.97;2.97;;;;;;;30.11;68.93;99355.78;5082808;28;20127;-82
2023/08/10 09:07:56;;;;;;;6.32;3.40;;;;;;;30.04;69.06;99346.22;5078771;28;20070;-82
2023/08/10 09:10:50;;;;;;;3.60;3.30;;;;;;;30.55;67.31;99345.72;5079744;28;20071;-85
2023/08/10 09:13:34;;;;;;;4.40;3.30;;;;;;;30.84;67.96;99344.22;5080393;28;20043;-81
2023/08/10 09:16:18;;;;;;;7.28;3.10;;;;;;;30.95;67.87;99346.59;5075317;28;20063;-84
2023/08/10 09:19:02;;;;;;;3.85;3.08;;;;;;;31.17;67.60;99349.06;5070355;28;20556;-82
2023/08/10 09:21:47;;;;;;;4.32;3.08;;;;;;;31.72;65.81;99349.28;5074504;28;20048;-81
2023/08/10 09:24:31;;;;;;;4.03;3.05;;;;;;;31.76;65.21;99333.13;5076106;28;20093;-81
2023/08/10 09:27:15;;;;;;;3.42;3.17;;;;;;;31.98;64.48;99331.25;5081364;28;20046;-82
2023/08/10 09:30:01;;;;;;;4.43;3.25;;;;;;;31.80;63.95;99323.25;5084185;28;20040;-80
2023/08/10 09:32:46;;;;;;;3.78;3.30;;;;;;;31.69;64.84;99325.53;5083593;28;20133;-82
2023/08/10 09:35:31;;;;;;;3.55;3.25;;;;;;;32.15;62.56;99322.97;5080717;28;20153;-83
2023/08/10 09:38:19;;;;;;;3.60;3.30;;;;;;;31.85;62.74;99319.53;5082518;28;20058;-82
2023/08/10 09:41:10;;;;;;;8.00;3.30;;;;;;;31.77;63.41;99326.63;5073828;28;20097;-83
2023/08/10 09:43:55;;;;;;;4.85;3.70;;;;;;;32.03;63.47;99331.03;5078865;28;20125;-80
2023/08/10 09:46:39;;;;;;;4.50;3.55;;;;;;;32.44;62.97;99328.63;5078701;28;20040;-83
2023/08/10 09:49:23;;;;;;;5.32;4.22;;;;;;;32.22;63.04;99327.81;5082143;28;20052;-82
2023/08/10 09:52:07;;;;;;;4.82;3.67;;;;;;;32.32;62.17;99324.72;5083979;28;20398;-83
2023/08/10 09:54:53;;;;;;;5.38;3.72;;;;;;;32.27;62.57;99324.13;5080399;28;20068;-83
2023/08/10 09:57:44;;;;;;;3.90;3.47;;;;;;;32.04;62.57;99317.16;5080920;28;20047;-83
2023/08/10 10:00:29;;;;;;;4.30;3.78;;;;;;;32.26;63.70;99317.91;5086115;28;20035;-84
2023/08/10 10:03:13;;;;;;;3.83;3.50;;;;;;;32.11;62.20;99318.53;5078305;28;20043;-83
2023/08/10 10:05:58;;;;;;;4.63;3.50;;;;;;;32.25;63.33;99310.88;5081657;28;20047;-84
2023/08/10 10:08:52;;;;;;;3.70;3.40;;;;;;;31.60;63.31;99314.72;5083685;28;20125;-85
2023/08/10 10:11:37;;;;;;;4.07;3.22;;;;;;;32.19;63.47;99309.50;5088758;28;20133;-84
2023/08/10 10:14:22;;;;;;;4.28;3.75;;;;;;;32.39;63.68;99312.53;5079921;28;20051;-85
2023/08/10 10:17:06;;;;;;;4.35;3.80;;;;;;;32.26;63.42;99317.91;5083011;28;20050;-87
2023/08/10 10:19:51;;;;;;;5.30;3.78;;;;;;;32.33;62.03;99310.03;5085282;28;20039;-85
2023/08/10 10:22:35;;;;;;;7.88;3.60;;;;;;;32.49;62.54;99301.25;5086051;28;20115;-86
2023/08/10 10:25:19;;;;;;;3.47;3.17;;;;;;;32.60;62.92;99307.03;5082500;28;20119;-85
2023/08/10 10:28:12;;;;;;;3.78;3.25;;;;;;;31.98;63.05;99304.88;5085494;28;20040;-87
2023/08/10 10:31:08;;;;;;;4.05;3.63;;;;;;;32.22;62.69;99308.03;5081417;28;20555;-85
2023/08/10 10:33:55;;;;;;;4.32;3.80;;;;;;;32.68;62.48;99300.72;5081154;28;20106;-85
2023/08/10 10:36:40;;;;;;;4.00;3.60;;;;;;;32.38;61.94;99319.09;5080882;28;20047;-85
2023/08/10 10:39:24;;;;;;;5.05;3.47;;;;;;;32.73;62.21;99314.09;5079385;28;20070;-86
2023/08/10 10:42:10;;;;;;;6.38;3.63;;;;;;;33.02;60.67;99317.00;5081111;28;20128;-85
2023/08/10 10:45:03;;;;;;;6.30;3.70;;;;;;;32.79;60.86;99324.75;5079726;28;20047;-86
2023/08/10 10:47:48;;;;;;;4.00;3.60;;;;;;;33.14;60.72;99316.97;5079530;28;20184;-85
2023/08/10 10:50:33;;;;;;;3.80;3.50;;;;;;;33.61;60.14;99312.22;5082987;28;20178;-85
2023/08/10 10:53:22;;;;;;;3.95;3.55;;;;;;;33.75;58.73;99311.81;5088015;28;20060;-85
2023/08/10 10:56:07;;;;;;;4.63;4.15;;;;;;;33.22;60.56;99309.84;5080669;28;20059;-86
2023/08/10 10:58:51;;;;;;;4.55;4.15;;;;;;;33.76;59.78;99297.84;5083360;28;20038;-85
2023/08/10 11:01:35;;;;;;;5.20;4.20;;;;;;;33.71;60.93;99287.22;5078226;28;20390;-86
2023/08/10 11:04:22;;;;;;;4.95;3.95;;;;;;;34.25;60.11;99296.13;5080439;28;20063;-85
2023/08/10 11:07:07;;;;;;;7.57;4.50;;;;;;;34.51;58.08;99305.75;5083089;28;20757;-84
2023/08/10 11:09:51;;;;;;;4.43;3.88;;;;;;;34.60;58.23;99300.94;5084916;28;20069;-85
2023/08/10 11:12:39;;;;;;;6.68;3.90;;;;;;;34.75;57.84;99295.81;5078400;28;20051;-85
2023/08/10 11:15:23;;;;;;;5.38;4.10;;;;;;;34.58;58.07;99302.41;5085738;28;20120;-85
2023/08/10 11:18:12;;;;;;;5.90;4.15;;;;;;;34.76;58.22;99297.41;5083261;28;20119;-86
2023/08/10 11:20:56;;;;;;;4.22;3.83;;;;;;;34.91;56.87;99295.84;5081708;28;20047;-85
2023/08/10 11:23:41;;;;;;;4.30;3.90;;;;;;;34.41;58.48;99298.06;5078941;28;20081;-85
2023/08/10 11:26:26;;;;;;;4.72;3.60;;;;;;;34.43;56.57;99288.41;5085976;28;20119;-86
2023/08/10 11:29:10;;;;;;;9.25;4.43;;;;;;;34.22;57.91;99283.19;5082160;28;20118;-86
2023/08/10 11:31:54;;;;;;;5.10;3.72;;;;;;;34.21;57.37;99278.88;5078077;28;20042;-85
2023/08/10 11:34:39;;;;;;;5.13;3.72;;;;;;;34.27;57.81;99268.50;5080338;28;20055;-84
2023/08/10 11:37:30;;;;;;;5.13;4.07;;;;;;;34.12;57.54;99275.50;5076870;28;20116;-84
2023/08/10 11:40:18;;;;;;;4.32;3.90;;;;;;;34.67;57.76;99275.78;5079500;28;20039;-87
2023/08/10 11:43:03;;;;;;;4.28;3.88;;;;;;;34.87;56.83;99276.66;5078943;28;20051;-86
2023/08/10 11:45:50;;;;;;;5.18;3.80;;;;;;;35.16;55.23;99282.00;5078180;28;20046;-86
2023/08/10 11:48:34;;;;;;;5.28;3.83;;;;;;;35.04;55.58;99285.63;5078673;28;20601;-87
2023/08/10 11:51:18;;;;;;;3.53;3.22;;;;;;;34.93;56.96;99281.84;5078929;28;20051;-86
2023/08/10 11:54:11;;;;;;;4.13;3.72;;;;;;;35.74;54.74;99278.56;5083002;28;20211;-86
2023/08/10 11:57:00;;;;;;;4.03;3.55;;;;;;;35.49;55.86;99277.25;5075362;28;20051;-86
2023/08/10 11:59:44;;;;;;;5.20;3.95;;;;;;;36.10;55.06;99277.72;5076095;28;20039;-87
2023/08/10 12:02:28;;;;;;;5.70;4.03;;;;;;;36.15;55.08;99270.03;5075913;28;20444;-86
2023/08/10 12:05:12;;;;;;;5.47;3.70;;;;;;;36.22;55.24;99258.44;5081196;28;20077;-87
2023/08/10 12:07:59;;;;;;;6.05;3.80;;;;;;;36.11;54.41;99260.97;5080846;28;20051;-86
2023/08/10 12:10:50;;;;;;;3.92;3.55;;;;;;;35.82;54.07;99281.47;5078756;28;20567;-86
2023/08/10 12:13:45;;;;;;;3.80;3.50;;;;;;;35.70;53.77;99282.41;5080493;28;20035;-87
2023/08/10 12:16:30;;;;;;;4.40;3.40;;;;;;;35.36;54.52;99279.31;5085318;28;20047;-86
2023/08/10 12:19:14;;;;;;;4.47;4.07;;;;;;;35.71;53.77;99276.56;5077808;28;20043;-86
2023/08/10 12:22:05;;;;;;;4.43;3.65;;;;;;;35.90;52.97;99269.53;5078025;28;20114;-86
2023/08/10 12:24:50;;;;;;;4.15;3.75;;;;;;;35.96;54.08;99262.59;5079104;28;20122;-87
2023/08/10 12:27:33;;;;;;;4.72;4.20;;;;;;;36.23;50.96;99264.69;5084533;28;20084;-87
2023/08/10 12:30:18;;;;;;;4.80;3.53;;;;;;;36.07;52.94;99256.59;5079295;28;20116;-86
2023/08/10 12:33:04;;;;;;;4.18;3.85;;;;;;;36.41;52.08;99257.59;5083191;28;20506;-86
2023/08/10 12:35:49;;;;;;;6.20;3.75;;;;;;;36.48;53.40;99254.19;5082395;28;20131;-87
2023/08/10 12:38:33;;;;;;;4.25;3.90;;;;;;;36.28;52.73;99254.25;5081397;28;20042;-87
2023/08/10 12:41:17;;;;;;;3.53;3.17;;;;;;;36.28;51.92;99254.25;5080549;28;20056;-87
2023/08/10 12:44:02;;;;;;;4.10;3.60;;;;;;;36.50;50.87;99260.06;5081097;28;20043;-86
2023/08/10 12:46:47;;;;;;;5.75;4.70;;;;;;;36.67;51.95;99256.09;5076751;28;20058;-86
2023/08/10 12:49:31;;;;;;;5.95;4.25;;;;;;;36.36;51.88;99262.56;5078276;28;20039;-87
2023/08/10 12:52:15;;;;;;;4.70;4.22;;;;;;;36.85;51.50;99250.88;5081152;28;20115;-86
2023/08/10 12:55:00;;;;;;;5.07;4.15;;;;;;;36.08;51.97;99247.25;5081347;28;20043;-86
2023/08/10 12:57:44;;;;;;;4.20;3.90;;;;;;;35.59;52.98;99249.44;5080203;28;20515;-85